sensor_id;sensor_type;location;lat;lon;timestamp;pressure;altitude;pressure_sealevel;temperature;humidity
62928;BME280;51070;52.236;-0.892;2023-07-20T00:02:15;100844.27;;;15.84;58.79
62928;BME280;51070;52.236;-0.892;2023-07-20T00:04:40;100843.87;;;15.80;59.11
62928;BME280;51070;52.236;-0.892;2023-07-20T00:07:06;100841.39;;;15.76;59.24
62928;BME280;51070;52.236;-0.892;2023-07-20T00:09:31;100843.61;;;15.73;59.47
62928;BME280;51070;52.236;-0.892;2023-07-20T00:11:56;100844.80;;;15.70;59.80
62928;BME280;51070;52.236;-0.892;2023-07-20T00:14:23;100846.34;;;15.69;60.19
62928;BME280;51070;52.236;-0.892;2023-07-20T00:16:50;100848.21;;;15.66;60.31
62928;BME280;51070;52.236;-0.892;2023-07-20T00:19:30;100849.25;;;15.65;60.27
62928;BME280;51070;52.236;-0.892;2023-07-20T00:21:57;100846.29;;;15.66;60.33
62928;BME280;51070;52.236;-0.892;2023-07-20T00:24:23;100845.27;;;15.68;60.38
62928;BME280;51070;52.236;-0.892;2023-07-20T00:26:48;100840.96;;;15.70;60.44
62928;BME280;51070;52.236;-0.892;2023-07-20T00:29:14;100842.00;;;15.69;60.48
62928;BME280;51070;52.236;-0.892;2023-07-20T00:31:39;100837.80;;;15.68;60.44
62928;BME280;51070;52.236;-0.892;2023-07-20T00:34:04;100840.41;;;15.69;60.47
62928;BME280;51070;52.236;-0.892;2023-07-20T00:36:30;100840.77;;;15.69;60.58
62928;BME280;51070;52.236;-0.892;2023-07-20T00:38:56;100843.90;;;15.69;60.70
62928;BME280;51070;52.236;-0.892;2023-07-20T00:41:21;100841.42;;;15.67;60.91
62928;BME280;51070;52.236;-0.892;2023-07-20T00:43:47;100843.84;;;15.65;60.99
62928;BME280;51070;52.236;-0.892;2023-07-20T00:46:13;100839.29;;;15.63;61.03
62928;BME280;51070;52.236;-0.892;2023-07-20T00:48:39;100837.15;;;15.60;61.28
62928;BME280;51070;52.236;-0.892;2023-07-20T00:51:05;100837.67;;;15.59;61.31
62928;BME280;51070;52.236;-0.892;2023-07-20T00:53:31;100831.54;;;15.57;61.54
62928;BME280;51070;52.236;-0.892;2023-07-20T00:55:57;100830.05;;;15.51;61.80
62928;BME280;51070;52.236;-0.892;2023-07-20T00:58:23;100827.85;;;15.43;61.75
62928;BME280;51070;52.236;-0.892;2023-07-20T01:00:49;100827.25;;;15.38;61.95
62928;BME280;51070;52.236;-0.892;2023-07-20T01:03:14;100831.16;;;15.33;62.17
62928;BME280;51070;52.236;-0.892;2023-07-20T01:08:40;100829.39;;;15.18;62.62
62928;BME280;51070;52.236;-0.892;2023-07-20T01:11:39;100831.38;;;15.11;62.94
62928;BME280;51070;52.236;-0.892;2023-07-20T01:14:08;100831.98;;;15.07;63.33
62928;BME280;51070;52.236;-0.892;2023-07-20T01:16:34;100832.34;;;15.05;63.43
62928;BME280;51070;52.236;-0.892;2023-07-20T01:18:59;100832.64;;;15.03;63.79
62928;BME280;51070;52.236;-0.892;2023-07-20T01:22:02;100832.11;;;15.03;64.10
62928;BME280;51070;52.236;-0.892;2023-07-20T01:25:02;100831.38;;;15.00;64.31
62928;BME280;51070;52.236;-0.892;2023-07-20T01:32:32;100835.14;;;14.97;64.72
62928;BME280;51070;52.236;-0.892;2023-07-20T01:34:59;100833.38;;;14.96;65.00
62928;BME280;51070;52.236;-0.892;2023-07-20T01:37:26;100829.67;;;14.92;65.06
62928;BME280;51070;52.236;-0.892;2023-07-20T01:39:55;100825.76;;;14.87;65.26
62928;BME280;51070;52.236;-0.892;2023-07-20T01:42:24;100826.90;;;14.83;65.41
62928;BME280;51070;52.236;-0.892;2023-07-20T01:44:53;100824.89;;;14.77;65.50
62928;BME280;51070;52.236;-0.892;2023-07-20T01:47:19;100821.17;;;14.73;65.44
62928;BME280;51070;52.236;-0.892;2023-07-20T01:49:45;100824.94;;;14.70;65.56
62928;BME280;51070;52.236;-0.892;2023-07-20T01:52:10;100822.81;;;14.67;65.77
62928;BME280;51070;52.236;-0.892;2023-07-20T01:54:36;100823.77;;;14.62;65.86
62928;BME280;51070;52.236;-0.892;2023-07-20T01:57:02;100824.22;;;14.58;66.16
62928;BME280;51070;52.236;-0.892;2023-07-20T01:59:28;100822.96;;;14.55;66.27
62928;BME280;51070;52.236;-0.892;2023-07-20T02:01:53;100820.16;;;14.54;66.34
62928;BME280;51070;52.236;-0.892;2023-07-20T02:04:18;100819.45;;;14.54;66.72
62928;BME280;51070;52.236;-0.892;2023-07-20T02:06:44;100818.73;;;14.53;67.00
62928;BME280;51070;52.236;-0.892;2023-07-20T02:09:09;100813.67;;;14.52;67.16
62928;BME280;51070;52.236;-0.892;2023-07-20T02:11:34;100815.42;;;14.52;67.40
62928;BME280;51070;52.236;-0.892;2023-07-20T02:14:00;100807.95;;;14.52;67.45
62928;BME280;51070;52.236;-0.892;2023-07-20T02:16:25;100812.98;;;14.51;67.77
62928;BME280;51070;52.236;-0.892;2023-07-20T02:18:50;100812.98;;;14.51;67.87
62928;BME280;51070;52.236;-0.892;2023-07-20T02:21:16;100812.21;;;14.48;68.05
62928;BME280;51070;52.236;-0.892;2023-07-20T02:23:41;100813.05;;;14.46;68.24
62928;BME280;51070;52.236;-0.892;2023-07-20T02:26:07;100809.55;;;14.44;68.17
62928;BME280;51070;52.236;-0.892;2023-07-20T02:28:32;100809.65;;;14.40;68.23
62928;BME280;51070;52.236;-0.892;2023-07-20T02:30:57;100809.60;;;14.38;68.50
62928;BME280;51070;52.236;-0.892;2023-07-20T02:33:22;100809.38;;;14.36;68.44
62928;BME280;51070;52.236;-0.892;2023-07-20T02:35:48;100809.31;;;14.34;68.58
62928;BME280;51070;52.236;-0.892;2023-07-20T02:38:14;100805.42;;;14.29;68.61
62928;BME280;51070;52.236;-0.892;2023-07-20T02:40:39;100804.13;;;14.25;68.63
62928;BME280;51070;52.236;-0.892;2023-07-20T02:43:04;100803.16;;;14.21;68.73
62928;BME280;51070;52.236;-0.892;2023-07-20T02:45:30;100807.27;;;14.17;69.11
62928;BME280;51070;52.236;-0.892;2023-07-20T02:47:55;100806.20;;;14.16;69.50
62928;BME280;51070;52.236;-0.892;2023-07-20T02:50:22;100803.92;;;14.15;69.48
62928;BME280;51070;52.236;-0.892;2023-07-20T02:52:47;100803.23;;;14.15;69.71
62928;BME280;51070;52.236;-0.892;2023-07-20T02:55:12;100803.03;;;14.13;69.63
62928;BME280;51070;52.236;-0.892;2023-07-20T02:57:38;100805.77;;;14.11;70.04
62928;BME280;51070;52.236;-0.892;2023-07-20T03:00:04;100806.26;;;14.09;70.28
62928;BME280;51070;52.236;-0.892;2023-07-20T03:02:31;100806.71;;;14.06;70.48
62928;BME280;51070;52.236;-0.892;2023-07-20T03:04:56;100809.61;;;14.04;70.84
62928;BME280;51070;52.236;-0.892;2023-07-20T03:07:27;100806.98;;;14.02;71.01
62928;BME280;51070;52.236;-0.892;2023-07-20T03:09:54;100804.14;;;13.99;71.14
62928;BME280;51070;52.236;-0.892;2023-07-20T03:12:20;100801.08;;;13.94;71.18
62928;BME280;51070;52.236;-0.892;2023-07-20T03:14:46;100794.70;;;13.87;71.43
62928;BME280;51070;52.236;-0.892;2023-07-20T03:17:11;100796.36;;;13.83;71.61
62928;BME280;51070;52.236;-0.892;2023-07-20T03:19:36;100800.66;;;13.81;71.63
62928;BME280;51070;52.236;-0.892;2023-07-20T03:22:02;100800.11;;;13.79;72.05
62928;BME280;51070;52.236;-0.892;2023-07-20T03:24:27;100802.21;;;13.80;72.22
62928;BME280;51070;52.236;-0.892;2023-07-20T03:26:52;100807.44;;;13.82;72.31
62928;BME280;51070;52.236;-0.892;2023-07-20T03:29:18;100805.92;;;13.84;72.42
62928;BME280;51070;52.236;-0.892;2023-07-20T03:31:44;100804.92;;;13.85;72.60
62928;BME280;51070;52.236;-0.892;2023-07-20T03:34:09;100805.66;;;13.88;72.53
62928;BME280;51070;52.236;-0.892;2023-07-20T03:36:34;100808.43;;;13.88;72.37
62928;BME280;51070;52.236;-0.892;2023-07-20T03:39:00;100806.86;;;13.87;72.54
62928;BME280;51070;52.236;-0.892;2023-07-20T03:41:25;100811.02;;;13.86;72.39
62928;BME280;51070;52.236;-0.892;2023-07-20T03:43:51;100809.22;;;13.84;72.57
62928;BME280;51070;52.236;-0.892;2023-07-20T03:46:16;100809.17;;;13.81;72.61
62928;BME280;51070;52.236;-0.892;2023-07-20T03:48:42;100807.87;;;13.77;72.87
62928;BME280;51070;52.236;-0.892;2023-07-20T03:51:07;100809.00;;;13.73;73.24
62928;BME280;51070;52.236;-0.892;2023-07-20T03:53:32;100809.65;;;13.71;73.30
62928;BME280;51070;52.236;-0.892;2023-07-20T03:55:58;100810.35;;;13.71;73.48
62928;BME280;51070;52.236;-0.892;2023-07-20T03:58:23;100812.09;;;13.71;73.60
62928;BME280;51070;52.236;-0.892;2023-07-20T04:00:50;100809.98;;;13.70;73.95
62928;BME280;51070;52.236;-0.892;2023-07-20T04:03:16;100812.77;;;13.70;74.16
62928;BME280;51070;52.236;-0.892;2023-07-20T04:05:42;100811.70;;;13.69;74.21
62928;BME280;51070;52.236;-0.892;2023-07-20T04:08:08;100809.32;;;13.63;74.42
62928;BME280;51070;52.236;-0.892;2023-07-20T04:10:34;100812.02;;;13.60;74.79
62928;BME280;51070;52.236;-0.892;2023-07-20T04:13:00;100813.19;;;13.58;74.89
62928;BME280;51070;52.236;-0.892;2023-07-20T04:15:26;100809.86;;;13.56;75.08
62928;BME280;51070;52.236;-0.892;2023-07-20T04:17:51;100809.69;;;13.56;75.11
62928;BME280;51070;52.236;-0.892;2023-07-20T04:20:17;100808.77;;;13.54;75.11
62928;BME280;51070;52.236;-0.892;2023-07-20T04:22:43;100809.22;;;13.51;75.28
62928;BME280;51070;52.236;-0.892;2023-07-20T04:25:09;100808.87;;;13.51;75.60
62928;BME280;51070;52.236;-0.892;2023-07-20T04:27:36;100806.95;;;13.51;75.52
62928;BME280;51070;52.236;-0.892;2023-07-20T04:30:02;100806.05;;;13.50;75.68
62928;BME280;51070;52.236;-0.892;2023-07-20T04:32:28;100804.52;;;13.51;75.82
62928;BME280;51070;52.236;-0.892;2023-07-20T04:34:54;100806.97;;;13.51;75.95
62928;BME280;51070;52.236;-0.892;2023-07-20T04:37:19;100805.61;;;13.53;76.03
62928;BME280;51070;52.236;-0.892;2023-07-20T04:39:45;100807.23;;;13.55;76.15
62928;BME280;51070;52.236;-0.892;2023-07-20T04:42:10;100809.84;;;13.55;76.04
62928;BME280;51070;52.236;-0.892;2023-07-20T04:44:36;100809.31;;;13.55;76.07
62928;BME280;51070;52.236;-0.892;2023-07-20T04:47:01;100806.89;;;13.55;76.22
62928;BME280;51070;52.236;-0.892;2023-07-20T04:49:27;100804.80;;;13.55;76.25
62928;BME280;51070;52.236;-0.892;2023-07-20T04:51:53;100801.67;;;13.56;76.21
62928;BME280;51070;52.236;-0.892;2023-07-20T04:54:18;100798.60;;;13.58;76.34
62928;BME280;51070;52.236;-0.892;2023-07-20T04:56:44;100797.95;;;13.59;76.42
62928;BME280;51070;52.236;-0.892;2023-07-20T04:59:09;100796.06;;;13.61;76.57
62928;BME280;51070;52.236;-0.892;2023-07-20T05:01:35;100798.84;;;13.61;76.67
62928;BME280;51070;52.236;-0.892;2023-07-20T05:04:02;100802.52;;;13.62;76.77
62928;BME280;51070;52.236;-0.892;2023-07-20T05:06:27;100802.16;;;13.62;76.55
62928;BME280;51070;52.236;-0.892;2023-07-20T05:08:52;100803.45;;;13.66;76.52
62928;BME280;51070;52.236;-0.892;2023-07-20T05:11:18;100804.77;;;13.69;76.45
62928;BME280;51070;52.236;-0.892;2023-07-20T05:13:43;100807.77;;;13.73;76.19
62928;BME280;51070;52.236;-0.892;2023-07-20T05:16:08;100807.79;;;13.73;76.25
62928;BME280;51070;52.236;-0.892;2023-07-20T05:18:34;100809.25;;;13.77;76.18
62928;BME280;51070;52.236;-0.892;2023-07-20T05:20:59;100812.27;;;13.80;76.12
62928;BME280;51070;52.236;-0.892;2023-07-20T05:23:25;100813.59;;;13.84;75.90
62928;BME280;51070;52.236;-0.892;2023-07-20T05:25:57;100813.67;;;13.89;75.86
62928;BME280;51070;52.236;-0.892;2023-07-20T05:28:23;100815.02;;;13.96;75.95
62928;BME280;51070;52.236;-0.892;2023-07-20T05:30:50;100814.92;;;13.99;75.94
62928;BME280;51070;52.236;-0.892;2023-07-20T05:33:18;100814.48;;;14.04;76.06
62928;BME280;51070;52.236;-0.892;2023-07-20T05:35:43;100813.55;;;14.09;76.00
62928;BME280;51070;52.236;-0.892;2023-07-20T05:38:08;100814.33;;;14.14;75.50
62928;BME280;51070;52.236;-0.892;2023-07-20T05:40:38;100812.69;;;14.19;75.52
62928;BME280;51070;52.236;-0.892;2023-07-20T05:43:03;100813.45;;;14.22;75.55
62928;BME280;51070;52.236;-0.892;2023-07-20T05:45:29;100814.52;;;14.23;75.26
62928;BME280;51070;52.236;-0.892;2023-07-20T05:47:54;100812.91;;;14.22;75.17
62928;BME280;51070;52.236;-0.892;2023-07-20T05:50:19;100814.97;;;14.19;75.34
62928;BME280;51070;52.236;-0.892;2023-07-20T05:52:45;100813.60;;;14.21;75.64
62928;BME280;51070;52.236;-0.892;2023-07-20T05:55:11;100814.88;;;14.24;75.55
62928;BME280;51070;52.236;-0.892;2023-07-20T05:57:36;100815.13;;;14.28;75.77
62928;BME280;51070;52.236;-0.892;2023-07-20T06:00:06;100821.46;;;14.33;75.76
62928;BME280;51070;52.236;-0.892;2023-07-20T06:02:32;100817.57;;;14.37;75.79
62928;BME280;51070;52.236;-0.892;2023-07-20T06:04:58;100818.36;;;14.41;75.71
62928;BME280;51070;52.236;-0.892;2023-07-20T06:07:23;100817.06;;;14.47;75.32
62928;BME280;51070;52.236;-0.892;2023-07-20T06:09:49;100815.91;;;14.50;75.22
62928;BME280;51070;52.236;-0.892;2023-07-20T06:12:15;100816.52;;;14.64;75.10
62928;BME280;51070;52.236;-0.892;2023-07-20T06:14:40;100817.01;;;14.84;74.88
62928;BME280;51070;52.236;-0.892;2023-07-20T06:17:05;100814.79;;;15.09;74.55
62928;BME280;51070;52.236;-0.892;2023-07-20T06:19:31;100815.29;;;15.42;73.76
62928;BME280;51070;52.236;-0.892;2023-07-20T06:21:56;100813.52;;;15.78;72.85
62928;BME280;51070;52.236;-0.892;2023-07-20T06:24:21;100811.55;;;16.17;71.87
62928;BME280;51070;52.236;-0.892;2023-07-20T06:26:47;100817.52;;;16.55;71.09
62928;BME280;51070;52.236;-0.892;2023-07-20T06:29:12;100816.84;;;16.96;69.84
62928;BME280;51070;52.236;-0.892;2023-07-20T06:31:38;100809.88;;;17.53;68.49
62928;BME280;51070;52.236;-0.892;2023-07-20T06:34:03;100808.67;;;17.88;66.86
62928;BME280;51070;52.236;-0.892;2023-07-20T06:36:29;100811.88;;;18.03;66.02
62928;BME280;51070;52.236;-0.892;2023-07-20T06:38:55;100810.16;;;18.15;65.58
62928;BME280;51070;52.236;-0.892;2023-07-20T06:41:21;100814.23;;;18.35;65.06
62928;BME280;51070;52.236;-0.892;2023-07-20T06:43:47;100814.12;;;18.65;63.81
62928;BME280;51070;52.236;-0.892;2023-07-20T06:46:13;100815.19;;;18.76;63.21
62928;BME280;51070;52.236;-0.892;2023-07-20T06:48:39;100812.73;;;18.87;62.81
62928;BME280;51070;52.236;-0.892;2023-07-20T06:51:04;100809.40;;;18.97;62.15
62928;BME280;51070;52.236;-0.892;2023-07-20T06:53:30;100810.45;;;19.11;61.79
62928;BME280;51070;52.236;-0.892;2023-07-20T06:55:56;100816.88;;;19.44;61.09
62928;BME280;51070;52.236;-0.892;2023-07-20T06:58:23;100815.86;;;19.87;59.95
62928;BME280;51070;52.236;-0.892;2023-07-20T07:00:48;100814.30;;;20.23;58.89
62928;BME280;51070;52.236;-0.892;2023-07-20T07:03:14;100812.66;;;20.31;58.32
62928;BME280;51070;52.236;-0.892;2023-07-20T07:05:39;100815.79;;;20.39;57.87
62928;BME280;51070;52.236;-0.892;2023-07-20T07:08:04;100816.00;;;20.30;57.77
62928;BME280;51070;52.236;-0.892;2023-07-20T07:10:30;100814.65;;;20.21;57.55
62928;BME280;51070;52.236;-0.892;2023-07-20T07:12:56;100814.16;;;20.13;57.86
62928;BME280;51070;52.236;-0.892;2023-07-20T07:15:21;100811.55;;;20.11;57.92
62928;BME280;51070;52.236;-0.892;2023-07-20T07:17:46;100807.33;;;20.13;57.97
62928;BME280;51070;52.236;-0.892;2023-07-20T07:20:12;100807.12;;;20.16;57.72
62928;BME280;51070;52.236;-0.892;2023-07-20T07:22:37;100805.06;;;20.40;57.40
62928;BME280;51070;52.236;-0.892;2023-07-20T07:25:03;100802.83;;;20.83;56.72
62928;BME280;51070;52.236;-0.892;2023-07-20T07:27:29;100801.48;;;20.96;56.40
62928;BME280;51070;52.236;-0.892;2023-07-20T07:29:54;100799.50;;;21.01;55.62
62928;BME280;51070;52.236;-0.892;2023-07-20T07:32:20;100798.00;;;21.13;56.02
62928;BME280;51070;52.236;-0.892;2023-07-20T07:34:45;100793.41;;;21.48;55.05
62928;BME280;51070;52.236;-0.892;2023-07-20T07:37:14;100793.41;;;21.92;54.54
62928;BME280;51070;52.236;-0.892;2023-07-20T07:39:39;100791.48;;;21.92;54.32
62928;BME280;51070;52.236;-0.892;2023-07-20T07:42:05;100789.63;;;22.01;54.01
62928;BME280;51070;52.236;-0.892;2023-07-20T07:44:31;100792.36;;;21.93;53.79
62928;BME280;51070;52.236;-0.892;2023-07-20T07:46:57;100792.94;;;21.87;53.53
62928;BME280;51070;52.236;-0.892;2023-07-20T07:49:22;100793.66;;;21.86;53.59
62928;BME280;51070;52.236;-0.892;2023-07-20T07:51:48;100791.85;;;22.72;52.67
62928;BME280;51070;52.236;-0.892;2023-07-20T07:54:14;100794.88;;;24.42;49.99
62928;BME280;51070;52.236;-0.892;2023-07-20T07:56:39;100791.65;;;26.14;47.13
62928;BME280;51070;52.236;-0.892;2023-07-20T07:59:06;100789.61;;;28.12;43.16
62928;BME280;51070;52.236;-0.892;2023-07-20T08:01:32;100784.16;;;29.54;40.49
62928;BME280;51070;52.236;-0.892;2023-07-20T08:03:57;100783.09;;;30.88;38.20
62928;BME280;51070;52.236;-0.892;2023-07-20T08:06:23;100788.91;;;32.20;35.55
62928;BME280;51070;52.236;-0.892;2023-07-20T08:08:49;100784.37;;;33.13;34.31
62928;BME280;51070;52.236;-0.892;2023-07-20T08:11:15;100787.68;;;34.28;32.20
62928;BME280;51070;52.236;-0.892;2023-07-20T08:13:40;100782.39;;;35.00;30.38
62928;BME280;51070;52.236;-0.892;2023-07-20T08:16:05;100784.16;;;35.13;29.27
62928;BME280;51070;52.236;-0.892;2023-07-20T08:18:31;100784.27;;;34.67;29.06
62928;BME280;51070;52.236;-0.892;2023-07-20T08:20:56;100784.82;;;33.75;29.63
62928;BME280;51070;52.236;-0.892;2023-07-20T08:23:22;100785.69;;;33.06;30.36
62928;BME280;51070;52.236;-0.892;2023-07-20T08:25:47;100783.09;;;33.49;29.66
62928;BME280;51070;52.236;-0.892;2023-07-20T08:28:15;100782.34;;;33.89;29.04
62928;BME280;51070;52.236;-0.892;2023-07-20T08:30:46;100781.95;;;33.79;28.81
62928;BME280;51070;52.236;-0.892;2023-07-20T08:33:16;100775.71;;;33.89;28.50
62928;BME280;51070;52.236;-0.892;2023-07-20T08:35:43;100773.80;;;33.80;28.25
62928;BME280;51070;52.236;-0.892;2023-07-20T08:38:08;100773.14;;;33.51;27.28
62928;BME280;51070;52.236;-0.892;2023-07-20T08:40:39;100772.49;;;34.41;25.73
62928;BME280;51070;52.236;-0.892;2023-07-20T08:43:05;100772.80;;;34.85;24.84
62928;BME280;51070;52.236;-0.892;2023-07-20T08:45:33;100776.64;;;34.89;24.76
62928;BME280;51070;52.236;-0.892;2023-07-20T08:48:00;100776.17;;;35.14;24.58
62928;BME280;51070;52.236;-0.892;2023-07-20T08:50:28;100780.23;;;35.86;23.70
62928;BME280;51070;52.236;-0.892;2023-07-20T08:52:57;100779.05;;;36.77;23.29
62928;BME280;51070;52.236;-0.892;2023-07-20T08:55:27;100778.52;;;37.72;22.72
62928;BME280;51070;52.236;-0.892;2023-07-20T08:57:58;100781.98;;;38.59;22.72
62928;BME280;51070;52.236;-0.892;2023-07-20T09:00:25;100777.92;;;39.48;22.02
62928;BME280;51070;52.236;-0.892;2023-07-20T09:02:53;100780.41;;;40.25;20.98
62928;BME280;51070;52.236;-0.892;2023-07-20T09:05:20;100784.68;;;40.45;20.42
62928;BME280;51070;52.236;-0.892;2023-07-20T09:07:46;100786.08;;;38.62;20.94
62928;BME280;51070;52.236;-0.892;2023-07-20T09:10:12;100781.91;;;37.85;21.69
62928;BME280;51070;52.236;-0.892;2023-07-20T09:12:39;100782.13;;;38.13;20.74
62928;BME280;51070;52.236;-0.892;2023-07-20T09:15:06;100780.05;;;38.12;20.65
62928;BME280;51070;52.236;-0.892;2023-07-20T09:17:31;100778.30;;;38.57;20.83
62928;BME280;51070;52.236;-0.892;2023-07-20T09:19:57;100779.39;;;39.23;20.27
62928;BME280;51070;52.236;-0.892;2023-07-20T09:22:29;100778.11;;;39.31;19.93
62928;BME280;51070;52.236;-0.892;2023-07-20T09:24:55;100775.55;;;38.88;19.93
62928;BME280;51070;52.236;-0.892;2023-07-20T09:27:20;100775.52;;;37.95;20.58
62928;BME280;51070;52.236;-0.892;2023-07-20T09:29:52;100776.77;;;38.33;20.23
62928;BME280;51070;52.236;-0.892;2023-07-20T09:32:19;100773.44;;;38.68;20.05
62928;BME280;51070;52.236;-0.892;2023-07-20T09:34:45;100774.66;;;38.98;20.10
62928;BME280;51070;52.236;-0.892;2023-07-20T09:37:11;100773.98;;;39.19;19.67
62928;BME280;51070;52.236;-0.892;2023-07-20T09:39:44;100774.77;;;39.26;19.78
62928;BME280;51070;52.236;-0.892;2023-07-20T09:42:13;100773.17;;;37.78;20.55
62928;BME280;51070;52.236;-0.892;2023-07-20T09:44:39;100774.77;;;35.99;22.38
62928;BME280;51070;52.236;-0.892;2023-07-20T09:47:06;100768.55;;;35.13;23.16
62928;BME280;51070;52.236;-0.892;2023-07-20T09:49:32;100764.35;;;35.08;22.90
62928;BME280;51070;52.236;-0.892;2023-07-20T09:51:58;100764.34;;;35.11;23.33
62928;BME280;51070;52.236;-0.892;2023-07-20T09:54:26;100760.55;;;35.65;22.95
62928;BME280;51070;52.236;-0.892;2023-07-20T09:56:53;100760.30;;;36.35;21.21
62928;BME280;51070;52.236;-0.892;2023-07-20T09:59:19;100757.91;;;36.83;21.00
62928;BME280;51070;52.236;-0.892;2023-07-20T10:01:46;100752.61;;;37.30;20.78
62928;BME280;51070;52.236;-0.892;2023-07-20T10:04:13;100750.67;;;37.34;20.90
62928;BME280;51070;52.236;-0.892;2023-07-20T10:06:39;100752.20;;;36.34;21.16
62928;BME280;51070;52.236;-0.892;2023-07-20T10:09:07;100754.11;;;34.85;22.13
62928;BME280;51070;52.236;-0.892;2023-07-20T10:11:36;100751.81;;;34.12;23.02
62928;BME280;51070;52.236;-0.892;2023-07-20T10:14:04;100744.83;;;33.82;22.96
62928;BME280;51070;52.236;-0.892;2023-07-20T10:16:39;100742.95;;;33.52;24.37
62928;BME280;51070;52.236;-0.892;2023-07-20T10:22:12;100743.37;;;34.04;23.82
62928;BME280;51070;52.236;-0.892;2023-07-20T10:24:38;100744.41;;;34.05;23.67
62928;BME280;51070;52.236;-0.892;2023-07-20T10:27:05;100740.67;;;34.04;24.02
62928;BME280;51070;52.236;-0.892;2023-07-20T10:29:31;100739.32;;;33.87;22.87
62928;BME280;51070;52.236;-0.892;2023-07-20T10:31:58;100743.42;;;33.38;23.39
62928;BME280;51070;52.236;-0.892;2023-07-20T10:34:24;100746.64;;;32.67;24.21
62928;BME280;51070;52.236;-0.892;2023-07-20T10:36:50;100746.55;;;31.84;24.70
62928;BME280;51070;52.236;-0.892;2023-07-20T10:39:27;100743.45;;;31.34;25.39
62928;BME280;51070;52.236;-0.892;2023-07-20T10:42:09;100741.73;;;31.62;25.32
62928;BME280;51070;52.236;-0.892;2023-07-20T10:44:38;100740.77;;;31.95;24.91
62928;BME280;51070;52.236;-0.892;2023-07-20T10:47:12;100739.33;;;32.08;25.76
62928;BME280;51070;52.236;-0.892;2023-07-20T10:49:57;100738.15;;;32.17;25.25
62928;BME280;51070;52.236;-0.892;2023-07-20T10:52:23;100740.05;;;32.02;25.36
62928;BME280;51070;52.236;-0.892;2023-07-20T10:54:49;100740.45;;;31.43;26.06
62928;BME280;51070;52.236;-0.892;2023-07-20T10:57:28;100734.38;;;31.03;26.77
62928;BME280;51070;52.236;-0.892;2023-07-20T11:00:10;100737.14;;;30.83;26.80
62928;BME280;51070;52.236;-0.892;2023-07-20T11:02:48;100733.41;;;30.41;27.59
62928;BME280;51070;52.236;-0.892;2023-07-20T11:05:34;100734.45;;;29.75;27.24
62928;BME280;51070;52.236;-0.892;2023-07-20T11:08:00;100730.95;;;28.94;27.43
62928;BME280;51070;52.236;-0.892;2023-07-20T11:10:27;100728.75;;;28.37;28.61
62928;BME280;51070;52.236;-0.892;2023-07-20T11:15:47;100726.98;;;28.19;30.17
62928;BME280;51070;52.236;-0.892;2023-07-20T11:18:13;100725.73;;;28.37;29.64
62928;BME280;51070;52.236;-0.892;2023-07-20T11:20:40;100722.03;;;28.14;29.84
62928;BME280;51070;52.236;-0.892;2023-07-20T11:23:05;100721.84;;;27.92;29.97
62928;BME280;51070;52.236;-0.892;2023-07-20T11:25:39;100720.05;;;27.74;30.15
62928;BME280;51070;52.236;-0.892;2023-07-20T11:28:08;100717.76;;;27.74;30.57
62928;BME280;51070;52.236;-0.892;2023-07-20T11:30:36;100716.49;;;27.51;30.81
62928;BME280;51070;52.236;-0.892;2023-07-20T11:33:02;100718.31;;;27.35;30.93
62928;BME280;51070;52.236;-0.892;2023-07-20T11:35:28;100717.20;;;27.12;30.91
62928;BME280;51070;52.236;-0.892;2023-07-20T11:37:54;100717.59;;;26.92;31.47
62928;BME280;51070;52.236;-0.892;2023-07-20T11:40:20;100715.18;;;26.78;31.74
62928;BME280;51070;52.236;-0.892;2023-07-20T11:42:45;100714.69;;;26.67;31.49
62928;BME280;51070;52.236;-0.892;2023-07-20T11:45:11;100712.34;;;26.53;31.46
62928;BME280;51070;52.236;-0.892;2023-07-20T11:47:40;100709.45;;;26.39;31.80
62928;BME280;51070;52.236;-0.892;2023-07-20T11:50:07;100709.75;;;26.46;32.78
62928;BME280;51070;52.236;-0.892;2023-07-20T11:52:33;100706.56;;;26.61;32.69
62928;BME280;51070;52.236;-0.892;2023-07-20T11:55:00;100706.31;;;26.84;32.13
62928;BME280;51070;52.236;-0.892;2023-07-20T11:57:26;100708.29;;;26.99;32.31
62928;BME280;51070;52.236;-0.892;2023-07-20T12:00:03;100707.10;;;27.07;32.30
62928;BME280;51070;52.236;-0.892;2023-07-20T12:02:34;100705.19;;;27.11;31.48
62928;BME280;51070;52.236;-0.892;2023-07-20T12:05:02;100703.88;;;27.18;30.88
62928;BME280;51070;52.236;-0.892;2023-07-20T12:07:28;100701.96;;;27.22;31.13
62928;BME280;51070;52.236;-0.892;2023-07-20T12:10:07;100703.03;;;27.26;30.60
62928;BME280;51070;52.236;-0.892;2023-07-20T12:12:34;100701.64;;;27.35;30.97
62928;BME280;51070;52.236;-0.892;2023-07-20T12:15:32;100699.89;;;27.43;30.70
62928;BME280;51070;52.236;-0.892;2023-07-20T12:17:59;100700.48;;;27.42;31.04
62928;BME280;51070;52.236;-0.892;2023-07-20T12:20:34;100700.16;;;27.36;31.21
62928;BME280;51070;52.236;-0.892;2023-07-20T12:23:04;100696.46;;;27.17;31.74
62928;BME280;51070;52.236;-0.892;2023-07-20T12:28:06;100694.16;;;26.51;33.26
62928;BME280;51070;52.236;-0.892;2023-07-20T12:30:32;100694.67;;;26.19;33.16
62928;BME280;51070;52.236;-0.892;2023-07-20T12:32:58;100699.04;;;25.99;33.40
62928;BME280;51070;52.236;-0.892;2023-07-20T12:35:24;100698.20;;;25.92;33.04
62928;BME280;51070;52.236;-0.892;2023-07-20T12:37:49;100694.25;;;26.15;32.88
62928;BME280;51070;52.236;-0.892;2023-07-20T12:40:17;100689.32;;;26.52;32.51
62928;BME280;51070;52.236;-0.892;2023-07-20T12:42:42;100686.96;;;26.85;31.63
62928;BME280;51070;52.236;-0.892;2023-07-20T12:45:08;100689.17;;;27.17;31.22
62928;BME280;51070;52.236;-0.892;2023-07-20T12:47:34;100684.05;;;27.12;31.20
62928;BME280;51070;52.236;-0.892;2023-07-20T12:49:59;100681.66;;;26.89;31.48
62928;BME280;51070;52.236;-0.892;2023-07-20T12:52:25;100674.40;;;26.58;31.65
62928;BME280;51070;52.236;-0.892;2023-07-20T12:54:50;100681.77;;;26.29;32.01
62928;BME280;51070;52.236;-0.892;2023-07-20T12:57:17;100675.36;;;26.13;32.26